KGVT/GVT METAR and TAF weather

Enter ICAO airport designator
Station Type Date Time Source
KGVT METAR 2021/07/29 02:55 UTC NOAA

KGVT 290255Z AUTO 00000KT 10SM CLR 25/23 A3001 RMK AO2 TSNO T02510232


Station Type Date Time Source
KGVT Decoded METAR 2021/07/29 02:55 UTC NOAA

Greenville / Majors, TX, United States (KGVT) 33-04N 096-04W
Jul 28, 2021 - 10:55 PM EDT / 2021.07.29 0255 UTC
Wind: Calm:0
Visibility: 10 mile(s):0
Sky conditions: clear
Temperature: 77.2 F (25.1 C)
Dew Point: 73.8 F (23.2 C)
Relative Humidity: 89%
Pressure (altimeter): 30.01 in. Hg (1016 hPa)
ob: KGVT 290255Z AUTO 00000KT 10SM CLR 25/23 A3001 RMK AO2 TSNO T02510232
cycle: 3

Station Type Date Time Source
KGVT TAF UTC NOAA

Error!

Example: see airport list